PWSweather.com
Personal Weather Stations
Station Observations
PENICUIKWS
PenicuikGB

PenicuikGB

Lat: 55.830932, Lon: -3.224533000000065

Elevation: 166

Station Type: Fine Offset

http://weather.penicuik.org

High Low Average
Temperature 71.2°F21.8°C 47.5°F8.6°C 60.6°F15.9°C
Dew Point 56.6°F13.7°C 46.7°F8.2°C 52.7°F11.5°C
Winds 6.4 mph 10.3 kmh Calm Calm 2.0 mph E3.2 kmh E
Wind Gusts 9.8 mph15.8 kmh -- 4.0 mph6.4 kmh
Humidity 97% 56% 77%
Pressure 30.30 in1026.1 mb 30.22 in1023.4 mb -
Precipitation 0.00 in0.0 mm - -
Hour Temp Dew Point Humidity Winds Wind Gusts Pressure Precip Precip Rate Daily Precip Total
12:00 AM 55.2°F12.9°C 51.7°F10.9°C 88% 0.2 mph SW0.3 kmh SW 1.6 mph2.6 kmh 30.30 in1026.1 mb 0.00 in0.0 mm 0.00 in0.0 mm 0.00 in0.0 mm
12:15 AM 54.5°F12.5°C 51.3°F10.7°C 89% Calm Calm -- 30.29 in1025.7 mb 0.00 in0.0 mm 0.00 in0.0 mm 0.00 in0.0 mm
12:30 AM 53.2°F11.8°C 50.4°F10.2°C 90% 0.3 mph SW0.5 kmh SW 1.6 mph2.6 kmh 30.28 in1025.4 mb 0.00 in0.0 mm 0.00 in0.0 mm 0.00 in0.0 mm
12:45 AM 52.7°F11.5°C 50.2°F10.1°C 91% 0.1 mph SW0.2 kmh SW 0.7 mph1.1 kmh 30.29 in1025.7 mb 0.00 in0.0 mm 0.00 in0.0 mm 0.00 in0.0 mm
01:00 AM 51.6°F10.9°C 49.4°F9.7°C 92% Calm Calm -- 30.29 in1025.7 mb 0.00 in0.0 mm 0.00 in0.0 mm 0.00 in0.0 mm
01:15 AM 51.6°F10.9°C 49.7°F9.8°C 93% Calm Calm -- 30.28 in1025.4 mb 0.00 in0.0 mm 0.00 in0.0 mm 0.00 in0.0 mm
01:30 AM 51.1°F10.6°C 49.1°F9.5°C 93% Calm Calm -- 30.28 in1025.4 mb 0.00 in0.0 mm 0.00 in0.0 mm 0.00 in0.0 mm
01:45 AM 50.9°F10.5°C 49.2°F9.6°C 94% Calm Calm -- 30.28 in1025.4 mb 0.00 in0.0 mm 0.00 in0.0 mm 0.00 in0.0 mm
02:00 AM 50.5°F10.3°C 48.9°F9.4°C 94% Calm Calm -- 30.28 in1025.4 mb 0.00 in0.0 mm 0.00 in0.0 mm 0.00 in0.0 mm
02:15 AM 50.5°F10.3°C 48.9°F9.4°C 94% 0.4 mph SW0.6 kmh SW 0.7 mph1.1 kmh 30.28 in1025.4 mb 0.00 in0.0 mm 0.00 in0.0 mm 0.00 in0.0 mm
02:30 AM 50.0°F10.0°C 48.6°F9.2°C 95% 0.5 mph SSE0.8 kmh SSE 1.6 mph2.6 kmh 30.27 in1025.1 mb 0.00 in0.0 mm 0.00 in0.0 mm 0.00 in0.0 mm
02:45 AM 49.5°F9.7°C 48.1°F8.9°C 95% 0.3 mph N0.5 kmh N 1.6 mph2.6 kmh 30.27 in1025.1 mb 0.00 in0.0 mm 0.00 in0.0 mm 0.00 in0.0 mm
03:00 AM 49.1°F9.5°C 48.0°F8.9°C 96% Calm Calm -- 30.27 in1025.1 mb 0.00 in0.0 mm 0.00 in0.0 mm 0.00 in0.0 mm
03:15 AM 48.7°F9.3°C 47.7°F8.7°C 96% 0.3 mph WSW0.5 kmh WSW 0.7 mph1.1 kmh 30.28 in1025.4 mb 0.00 in0.0 mm 0.00 in0.0 mm 0.00 in0.0 mm
03:30 AM 48.4°F9.1°C 47.3°F8.5°C 96% Calm Calm -- 30.27 in1025.1 mb 0.00 in0.0 mm 0.00 in0.0 mm 0.00 in0.0 mm
03:45 AM 48.2°F9.0°C 47.1°F8.4°C 96% 0.3 mph SW0.5 kmh SW 0.7 mph1.1 kmh 30.27 in1025.1 mb 0.00 in0.0 mm 0.00 in0.0 mm 0.00 in0.0 mm
04:00 AM 47.7°F8.7°C 46.9°F8.3°C 97% Calm Calm -- 30.27 in1025.1 mb 0.00 in0.0 mm 0.00 in0.0 mm 0.00 in0.0 mm
04:15 AM 47.5°F8.6°C 46.7°F8.2°C 97% 0.1 mph S0.2 kmh S 0.7 mph1.1 kmh 30.27 in1025.1 mb 0.00 in0.0 mm 0.00 in0.0 mm 0.00 in0.0 mm
04:30 AM 48.0°F8.9°C 47.2°F8.4°C 97% 1.0 mph S1.6 kmh S 2.2 mph3.5 kmh 30.27 in1025.1 mb 0.00 in0.0 mm 0.00 in0.0 mm 0.00 in0.0 mm
04:45 AM 50.2°F10.1°C 48.8°F9.3°C 95% 2.1 mph S3.4 kmh S 3.1 mph5.0 kmh 30.27 in1025.1 mb 0.00 in0.0 mm 0.00 in0.0 mm 0.00 in0.0 mm
05:00 AM 50.5°F10.3°C 48.6°F9.2°C 93% 1.0 mph S1.6 kmh S 1.6 mph2.6 kmh 30.27 in1025.1 mb 0.00 in0.0 mm 0.00 in0.0 mm 0.00 in0.0 mm
05:15 AM 51.1°F10.6°C 48.5°F9.2°C 91% 2.2 mph SSE3.5 kmh SSE 3.1 mph5.0 kmh 30.27 in1025.1 mb 0.00 in0.0 mm 0.00 in0.0 mm 0.00 in0.0 mm
05:30 AM 50.7°F10.4°C 47.9°F8.8°C 90% 2.3 mph S3.7 kmh S 3.1 mph5.0 kmh 30.27 in1025.1 mb 0.00 in0.0 mm 0.00 in0.0 mm 0.00 in0.0 mm
05:45 AM 51.4°F10.8°C 48.9°F9.4°C 91% 1.2 mph S1.9 kmh S 2.2 mph3.5 kmh 30.28 in1025.4 mb 0.00 in0.0 mm 0.00 in0.0 mm 0.00 in0.0 mm
06:00 AM 52.5°F11.4°C 50.0°F10.0°C 91% Calm Calm -- 30.28 in1025.4 mb 0.00 in0.0 mm 0.00 in0.0 mm 0.00 in0.0 mm
06:15 AM 54.9°F12.7°C 52.0°F11.1°C 90% Calm Calm -- 30.28 in1025.4 mb 0.00 in0.0 mm 0.00 in0.0 mm 0.00 in0.0 mm
06:30 AM 55.4°F13.0°C 51.6°F10.9°C 87% 0.1 mph S0.2 kmh S 0.7 mph1.1 kmh 30.28 in1025.4 mb 0.00 in0.0 mm 0.00 in0.0 mm 0.00 in0.0 mm
06:45 AM 56.3°F13.5°C 52.5°F11.4°C 87% 0.3 mph S0.5 kmh S 1.6 mph2.6 kmh 30.29 in1025.7 mb 0.00 in0.0 mm 0.00 in0.0 mm 0.00 in0.0 mm
07:00 AM 58.5°F14.7°C 53.7°F12.1°C 84% 0.2 mph S0.3 kmh S 1.6 mph2.6 kmh 30.28 in1025.4 mb 0.00 in0.0 mm 0.00 in0.0 mm 0.00 in0.0 mm
07:15 AM 59.0°F15.0°C 53.2°F11.8°C 81% 0.1 mph NE0.2 kmh NE 0.7 mph1.1 kmh 30.28 in1025.4 mb 0.00 in0.0 mm 0.00 in0.0 mm 0.00 in0.0 mm
07:30 AM 61.9°F16.6°C 55.3°F12.9°C 79% 0.6 mph S1.0 kmh S 1.6 mph2.6 kmh 30.28 in1025.4 mb 0.00 in0.0 mm 0.00 in0.0 mm 0.00 in0.0 mm
07:45 AM 66.0°F18.9°C 54.8°F12.7°C 67% 1.4 mph SE2.3 kmh SE 3.1 mph5.0 kmh 30.28 in1025.4 mb 0.00 in0.0 mm 0.00 in0.0 mm 0.00 in0.0 mm
08:00 AM 66.6°F19.2°C 55.3°F12.9°C 67% 1.3 mph E2.1 kmh E 2.2 mph3.5 kmh 30.28 in1025.4 mb 0.00 in0.0 mm 0.00 in0.0 mm 0.00 in0.0 mm
08:15 AM 66.0°F18.9°C 54.4°F12.4°C 66% 2.1 mph SSE3.4 kmh SSE 3.1 mph5.0 kmh 30.28 in1025.4 mb 0.00 in0.0 mm 0.00 in0.0 mm 0.00 in0.0 mm
08:30 AM 66.4°F19.1°C 55.1°F12.8°C 67% 1.6 mph SE2.6 kmh SE 3.1 mph5.0 kmh 30.27 in1025.1 mb 0.00 in0.0 mm 0.00 in0.0 mm 0.00 in0.0 mm
08:45 AM 68.0°F20.0°C 55.0°F12.8°C 63% 2.0 mph NNE3.2 kmh NNE 3.1 mph5.0 kmh 30.28 in1025.4 mb 0.00 in0.0 mm 0.00 in0.0 mm 0.00 in0.0 mm
09:00 AM 68.4°F20.2°C 54.0°F12.2°C 60% 2.1 mph N3.4 kmh N 3.8 mph6.1 kmh 30.27 in1025.1 mb 0.00 in0.0 mm 0.00 in0.0 mm 0.00 in0.0 mm
09:15 AM 68.7°F20.4°C 54.8°F12.7°C 61% 2.3 mph NNE3.7 kmh NNE 6.0 mph9.7 kmh 30.27 in1025.1 mb 0.00 in0.0 mm 0.00 in0.0 mm 0.00 in0.0 mm
09:30 AM 66.7°F19.3°C 53.8°F12.1°C 63% 3.7 mph WSW6.0 kmh WSW 5.4 mph8.7 kmh 30.27 in1025.1 mb 0.00 in0.0 mm 0.00 in0.0 mm 0.00 in0.0 mm
09:45 AM 66.6°F19.2°C 54.5°F12.5°C 65% 3.3 mph E5.3 kmh E 3.8 mph6.1 kmh 30.27 in1025.1 mb 0.00 in0.0 mm 0.00 in0.0 mm 0.00 in0.0 mm
10:00 AM 66.4°F19.1°C 54.7°F12.6°C 66% 3.1 mph N5.0 kmh N 4.5 mph7.2 kmh 30.26 in1024.7 mb 0.00 in0.0 mm 0.00 in0.0 mm 0.00 in0.0 mm
10:15 AM 65.8°F18.8°C 55.4°F13.0°C 69% 3.3 mph NNE5.3 kmh NNE 4.5 mph7.2 kmh 30.26 in1024.7 mb 0.00 in0.0 mm 0.00 in0.0 mm 0.00 in0.0 mm
10:30 AM 66.0°F18.9°C 55.6°F13.1°C 69% 2.6 mph N4.2 kmh N 3.8 mph6.1 kmh 30.26 in1024.7 mb 0.00 in0.0 mm 0.00 in0.0 mm 0.00 in0.0 mm
10:45 AM 66.7°F19.3°C 55.9°F13.3°C 68% 2.1 mph ESE3.4 kmh ESE 3.8 mph6.1 kmh 30.26 in1024.7 mb 0.00 in0.0 mm 0.00 in0.0 mm 0.00 in0.0 mm
11:00 AM 70.7°F21.5°C 56.6°F13.7°C 61% 3.4 mph N5.5 kmh N 5.4 mph8.7 kmh 30.25 in1024.4 mb 0.00 in0.0 mm 0.00 in0.0 mm 0.00 in0.0 mm
11:15 AM 69.1°F20.6°C 55.1°F12.8°C 61% 5.6 mph ENE9.0 kmh ENE 8.3 mph13.4 kmh 30.26 in1024.7 mb 0.00 in0.0 mm 0.00 in0.0 mm 0.00 in0.0 mm
11:30 AM 69.3°F20.7°C 55.3°F12.9°C 61% 2.5 mph N4.0 kmh N 3.1 mph5.0 kmh 30.26 in1024.7 mb 0.00 in0.0 mm 0.00 in0.0 mm 0.00 in0.0 mm
11:45 AM 69.3°F20.7°C 55.3°F12.9°C 61% 3.0 mph NNE4.8 kmh NNE 4.5 mph7.2 kmh 30.25 in1024.4 mb 0.00 in0.0 mm 0.00 in0.0 mm 0.00 in0.0 mm
12:00 PM 69.4°F20.8°C 55.4°F13.0°C 61% 2.5 mph N4.0 kmh N 3.8 mph6.1 kmh 30.25 in1024.4 mb 0.00 in0.0 mm 0.00 in0.0 mm 0.00 in0.0 mm
12:15 PM 70.5°F21.4°C 54.6°F12.6°C 57% 2.3 mph SW3.7 kmh SW 3.1 mph5.0 kmh 30.25 in1024.4 mb 0.00 in0.0 mm 0.00 in0.0 mm 0.00 in0.0 mm
12:30 PM 70.0°F21.1°C 55.5°F13.1°C 60% 2.8 mph N4.5 kmh N 4.5 mph7.2 kmh 30.25 in1024.4 mb 0.00 in0.0 mm 0.00 in0.0 mm 0.00 in0.0 mm
12:45 PM 70.2°F21.2°C 55.7°F13.2°C 60% 3.5 mph NNE5.6 kmh NNE 5.4 mph8.7 kmh 30.25 in1024.4 mb 0.00 in0.0 mm 0.00 in0.0 mm 0.00 in0.0 mm
01:00 PM 70.9°F21.6°C 56.3°F13.5°C 60% 3.9 mph NNE6.3 kmh NNE 5.4 mph8.7 kmh 30.25 in1024.4 mb 0.00 in0.0 mm 0.00 in0.0 mm 0.00 in0.0 mm
01:15 PM 69.1°F20.6°C 55.1°F12.8°C 61% 5.5 mph NNE8.9 kmh NNE 9.2 mph14.8 kmh 30.25 in1024.4 mb 0.00 in0.0 mm 0.00 in0.0 mm 0.00 in0.0 mm
01:30 PM 67.3°F19.6°C 55.6°F13.1°C 66% 4.7 mph N7.6 kmh N 6.9 mph11.1 kmh 30.25 in1024.4 mb 0.00 in0.0 mm 0.00 in0.0 mm 0.00 in0.0 mm
01:45 PM 69.1°F20.6°C 56.0°F13.3°C 63% 4.4 mph NNE7.1 kmh NNE 6.0 mph9.7 kmh 30.24 in1024.0 mb 0.00 in0.0 mm 0.00 in0.0 mm 0.00 in0.0 mm
02:00 PM 68.9°F20.5°C 55.8°F13.2°C 63% 3.0 mph N4.8 kmh N 6.0 mph9.7 kmh 30.25 in1024.4 mb 0.00 in0.0 mm 0.00 in0.0 mm 0.00 in0.0 mm
02:15 PM 67.8°F19.9°C 56.1°F13.4°C 66% 3.8 mph NE6.1 kmh NE 5.4 mph8.7 kmh 30.25 in1024.4 mb 0.00 in0.0 mm 0.00 in0.0 mm 0.00 in0.0 mm
02:30 PM 69.6°F20.9°C 56.5°F13.6°C 63% 3.1 mph N5.0 kmh N 6.0 mph9.7 kmh 30.24 in1024.0 mb 0.00 in0.0 mm 0.00 in0.0 mm 0.00 in0.0 mm
02:45 PM 70.5°F21.4°C 56.0°F13.3°C 60% 4.1 mph NE6.6 kmh NE 6.0 mph9.7 kmh 30.24 in1024.0 mb 0.00 in0.0 mm 0.00 in0.0 mm 0.00 in0.0 mm
03:00 PM 71.2°F21.8°C 55.3°F12.9°C 57% 4.8 mph N7.7 kmh N 9.8 mph15.8 kmh 30.24 in1024.0 mb 0.00 in0.0 mm 0.00 in0.0 mm 0.00 in0.0 mm
03:15 PM 71.2°F21.8°C 54.8°F12.7°C 56% 5.3 mph NE8.5 kmh NE 8.3 mph13.4 kmh 30.24 in1024.0 mb 0.00 in0.0 mm 0.00 in0.0 mm 0.00 in0.0 mm
03:30 PM 70.2°F21.2°C 55.2°F12.9°C 59% 6.4 mph N10.3 kmh N 8.3 mph13.4 kmh 30.23 in1023.7 mb 0.00 in0.0 mm 0.00 in0.0 mm 0.00 in0.0 mm
03:45 PM 68.4°F20.2°C 54.9°F12.7°C 62% 6.1 mph N9.8 kmh N 9.2 mph14.8 kmh 30.24 in1024.0 mb 0.00 in0.0 mm 0.00 in0.0 mm 0.00 in0.0 mm
04:00 PM 67.1°F19.5°C 54.5°F12.5°C 64% 4.2 mph NNE6.8 kmh NNE 8.3 mph13.4 kmh 30.24 in1024.0 mb 0.00 in0.0 mm 0.00 in0.0 mm 0.00 in0.0 mm
04:15 PM 66.0°F18.9°C 54.8°F12.7°C 67% 4.7 mph NNE7.6 kmh NNE 6.0 mph9.7 kmh 30.24 in1024.0 mb 0.00 in0.0 mm 0.00 in0.0 mm 0.00 in0.0 mm
04:30 PM 66.6°F19.2°C 54.9°F12.7°C 66% 3.7 mph N6.0 kmh N 7.6 mph12.2 kmh 30.24 in1024.0 mb 0.00 in0.0 mm 0.00 in0.0 mm 0.00 in0.0 mm
04:45 PM 66.0°F18.9°C 54.8°F12.7°C 67% 4.5 mph N7.2 kmh N 7.6 mph12.2 kmh 30.24 in1024.0 mb 0.00 in0.0 mm 0.00 in0.0 mm 0.00 in0.0 mm
05:00 PM 66.2°F19.0°C 54.1°F12.3°C 65% 3.6 mph NE5.8 kmh NE 5.4 mph8.7 kmh 30.23 in1023.7 mb 0.00 in0.0 mm 0.00 in0.0 mm 0.00 in0.0 mm
05:15 PM 65.5°F18.6°C 54.3°F12.4°C 67% 4.5 mph N7.2 kmh N 9.2 mph14.8 kmh 30.23 in1023.7 mb 0.00 in0.0 mm 0.00 in0.0 mm 0.00 in0.0 mm
05:30 PM 65.5°F18.6°C 54.3°F12.4°C 67% 3.5 mph NNE5.6 kmh NNE 4.5 mph7.2 kmh 30.22 in1023.4 mb 0.00 in0.0 mm 0.00 in0.0 mm 0.00 in0.0 mm
05:45 PM 65.3°F18.5°C 54.1°F12.3°C 67% 3.6 mph N5.8 kmh N 6.0 mph9.7 kmh 30.23 in1023.7 mb 0.00 in0.0 mm 0.00 in0.0 mm 0.00 in0.0 mm
06:00 PM 65.3°F18.5°C 54.5°F12.5°C 68% 3.9 mph N6.3 kmh N 6.0 mph9.7 kmh 30.23 in1023.7 mb 0.00 in0.0 mm 0.00 in0.0 mm 0.00 in0.0 mm
06:15 PM 65.3°F18.5°C 54.5°F12.5°C 68% 3.1 mph NNE5.0 kmh NNE 5.4 mph8.7 kmh 30.23 in1023.7 mb 0.00 in0.0 mm 0.00 in0.0 mm 0.00 in0.0 mm
06:30 PM 64.8°F18.2°C 54.0°F12.2°C 68% 3.9 mph N6.3 kmh N 5.4 mph8.7 kmh 30.23 in1023.7 mb 0.00 in0.0 mm 0.00 in0.0 mm 0.00 in0.0 mm
06:45 PM 64.0°F17.8°C 54.1°F12.3°C 70% 2.6 mph NNE4.2 kmh NNE 4.5 mph7.2 kmh 30.23 in1023.7 mb 0.00 in0.0 mm 0.00 in0.0 mm 0.00 in0.0 mm
07:00 PM 64.0°F17.8°C 53.7°F12.1°C 69% 3.3 mph N5.3 kmh N 5.4 mph8.7 kmh 30.23 in1023.7 mb 0.00 in0.0 mm 0.00 in0.0 mm 0.00 in0.0 mm
07:15 PM 64.2°F17.9°C 54.2°F12.3°C 70% 2.9 mph N4.7 kmh N 4.5 mph7.2 kmh 30.24 in1024.0 mb 0.00 in0.0 mm 0.00 in0.0 mm 0.00 in0.0 mm
07:30 PM 63.7°F17.6°C 53.7°F12.1°C 70% 2.7 mph N4.3 kmh N 4.5 mph7.2 kmh 30.23 in1023.7 mb 0.00 in0.0 mm 0.00 in0.0 mm 0.00 in0.0 mm
07:45 PM 63.0°F17.2°C 53.4°F11.9°C 71% 3.7 mph N6.0 kmh N 6.0 mph9.7 kmh 30.23 in1023.7 mb 0.00 in0.0 mm 0.00 in0.0 mm 0.00 in0.0 mm
08:00 PM 62.1°F16.7°C 53.7°F12.1°C 74% 2.8 mph N4.5 kmh N 4.5 mph7.2 kmh 30.24 in1024.0 mb 0.00 in0.0 mm 0.00 in0.0 mm 0.00 in0.0 mm
08:15 PM 61.3°F16.3°C 53.4°F11.9°C 75% 2.1 mph N3.4 kmh N 5.4 mph8.7 kmh 30.24 in1024.0 mb 0.00 in0.0 mm 0.00 in0.0 mm 0.00 in0.0 mm
08:30 PM 60.3°F15.7°C 53.4°F11.9°C 78% 2.2 mph N3.5 kmh N 3.1 mph5.0 kmh 30.25 in1024.4 mb 0.00 in0.0 mm 0.00 in0.0 mm 0.00 in0.0 mm
08:45 PM 59.7°F15.4°C 53.2°F11.8°C 79% 2.9 mph N4.7 kmh N 4.5 mph7.2 kmh 30.24 in1024.0 mb 0.00 in0.0 mm 0.00 in0.0 mm 0.00 in0.0 mm
09:00 PM 59.4°F15.2°C 53.2°F11.8°C 80% 2.8 mph NNE4.5 kmh NNE 4.5 mph7.2 kmh 30.25 in1024.4 mb 0.00 in0.0 mm 0.00 in0.0 mm 0.00 in0.0 mm
09:15 PM 59.2°F15.1°C 53.4°F11.9°C 81% 3.8 mph NNE6.1 kmh NNE 6.0 mph9.7 kmh 30.25 in1024.4 mb 0.00 in0.0 mm 0.00 in0.0 mm 0.00 in0.0 mm
09:30 PM 58.6°F14.8°C 53.2°F11.8°C 82% 2.1 mph N3.4 kmh N 3.1 mph5.0 kmh 30.25 in1024.4 mb 0.00 in0.0 mm 0.00 in0.0 mm 0.00 in0.0 mm
09:45 PM 57.2°F14.0°C 52.4°F11.3°C 84% 2.2 mph N3.5 kmh N 3.1 mph5.0 kmh 30.25 in1024.4 mb 0.00 in0.0 mm 0.00 in0.0 mm 0.00 in0.0 mm
10:00 PM 56.1°F13.4°C 52.0°F11.1°C 86% 1.0 mph N1.6 kmh N 2.2 mph3.5 kmh 30.26 in1024.7 mb 0.00 in0.0 mm 0.00 in0.0 mm 0.00 in0.0 mm
10:15 PM 55.0°F12.8°C 51.2°F10.7°C 87% Calm Calm -- 30.26 in1024.7 mb 0.00 in0.0 mm 0.00 in0.0 mm 0.00 in0.0 mm
10:30 PM 54.0°F12.2°C 50.5°F10.3°C 88% Calm Calm -- 30.26 in1024.7 mb 0.00 in0.0 mm 0.00 in0.0 mm 0.00 in0.0 mm
10:45 PM 52.7°F11.5°C 49.9°F9.9°C 90% Calm Calm -- 30.26 in1024.7 mb 0.00 in0.0 mm 0.00 in0.0 mm 0.00 in0.0 mm
11:00 PM 52.5°F11.4°C 50.0°F10.0°C 91% Calm Calm -- 30.26 in1024.7 mb 0.00 in0.0 mm 0.00 in0.0 mm 0.00 in0.0 mm
11:15 PM 51.6°F10.9°C 49.7°F9.8°C 93% Calm Calm 0.7 mph1.1 kmh 30.26 in1024.7 mb 0.00 in0.0 mm 0.00 in0.0 mm 0.00 in0.0 mm
11:30 PM 51.6°F10.9°C 49.7°F9.8°C 93% Calm Calm -- 30.26 in1024.7 mb 0.00 in0.0 mm 0.00 in0.0 mm 0.00 in0.0 mm
11:45 PM 51.4°F10.8°C 49.8°F9.9°C 94% Calm Calm -- 30.26 in1024.7 mb 0.00 in0.0 mm 0.00 in0.0 mm 0.00 in0.0 mm